Time;durP1;ratioP1;P1;durP2;ratioP2;P2;SDS_P1;SDS_P2;PMS_P1;PMS_P2;Temp;Humidity;BMP_temperature;BMP_pressure;BME280_temperature;BME280_humidity;BME280_pressure;Samples;Min_cycle;Max_cycle;Signal;HPM_P1;HPM_P2
2023/11/23 00:00:13;;;;;;;3.30;3.10;;;8.40;1.00;;;;;;5012279;28;20387;-75
2023/11/23 00:02:39;;;;;;;3.25;3.05;;;8.50;1.00;;;;;;5024891;28;20658;-75
2023/11/23 00:05:07;;;;;;;4.18;2.70;;;8.40;27.90;;;;;;5020129;28;20037;-75
2023/11/23 00:07:32;;;;;;;2.30;2.20;;;8.40;1.00;;;;;;5019065;28;20487;-74
2023/11/23 00:09:58;;;;;;;2.47;2.28;;;8.40;1.00;;;;;;5018684;28;20188;-74
2023/11/23 00:12:24;;;;;;;3.28;2.65;;;8.40;1.00;;;;;;5022376;28;20025;-74
2023/11/23 00:14:51;;;;;;;2.60;2.10;;;8.40;1.00;;;;;;5022599;28;20390;-75
2023/11/23 00:17:17;;;;;;;2.95;2.58;;;8.30;1.00;;;;;;5015409;28;20121;-75
2023/11/23 00:19:43;;;;;;;3.35;3.15;;;8.30;24.30;;;;;;5018262;28;20101;-74
2023/11/23 00:22:09;;;;;;;3.28;3.10;;;8.30;81.50;;;;;;5018006;28;20036;-74
2023/11/23 00:24:34;;;;;;;3.65;3.35;;;8.20;99.90;;;;;;5020034;28;20105;-75
2023/11/23 00:27:00;;;;;;;9.00;4.00;;;8.20;99.90;;;;;;5019898;28;20030;-74
2023/11/23 00:29:26;;;;;;;3.67;3.38;;;8.20;99.90;;;;;;5021552;28;20029;-74
2023/11/23 00:31:52;;;;;;;3.30;3.10;;;8.20;99.90;;;;;;5008928;28;20050;-74
2023/11/23 01:42:03;;;;;;;4.38;4.00;;;7.60;99.90;;;;;;3228661;28;20041;-74
2023/11/23 01:44:28;;;;;;;4.07;3.88;;;7.60;1.00;;;;;;5014711;28;20030;-74
2023/11/23 01:46:54;;;;;;;4.95;4.55;;;7.60;1.00;;;;;;5020608;28;20090;-74
2023/11/23 01:49:21;;;;;;;4.22;3.92;;;7.50;1.00;;;;;;5017344;28;20032;-74
2023/11/23 01:51:47;;;;;;;4.40;4.00;;;7.50;1.00;;;;;;5022835;28;20021;-75
2023/11/23 01:54:13;;;;;;;4.47;4.18;;;7.50;1.00;;;;;;5022885;28;20033;-74
2023/11/23 01:56:41;;;;;;;4.78;4.47;;;7.50;1.00;;;;;;5017302;28;20029;-74
2023/11/23 01:59:08;;;;;;;4.93;4.47;;;7.50;1.00;;;;;;5007894;28;20472;-74
2023/11/23 02:01:34;;;;;;;4.85;4.45;;;7.40;1.00;;;;;;5016821;28;20025;-75
2023/11/23 02:04:00;;;;;;;4.47;4.07;;;7.40;1.00;;;;;;5017271;28;20029;-74
2023/11/23 02:06:25;;;;;;;5.13;4.70;;;7.40;1.00;;;;;;5016024;28;20026;-74
2023/11/23 02:08:53;;;;;;;5.93;4.97;;;7.40;1.00;;;;;;5024770;28;20061;-74
2023/11/23 02:11:19;;;;;;;5.13;4.45;;;7.40;1.00;;;;;;5016605;28;20033;-75
2023/11/23 02:13:44;;;;;;;4.50;4.20;;;7.40;1.00;;;;;;5016581;28;20030;-74
2023/11/23 02:16:10;;;;;;;5.68;4.82;;;7.40;1.00;;;;;;5019238;28;20036;-74
2023/11/23 02:18:37;;;;;;;5.30;4.80;;;7.40;1.00;;;;;;5017394;28;20014;-74
2023/11/23 02:21:04;;;;;;;4.80;4.40;;;7.30;1.00;;;;;;5016836;28;20037;-74
2023/11/23 02:23:31;;;;;;;5.07;4.60;;;7.30;1.00;;;;;;5019222;28;20045;-74
2023/11/23 02:25:57;;;;;;;5.78;5.28;;;7.20;1.00;;;;;;5016077;28;20025;-74
2023/11/23 02:28:24;;;;;;;4.90;4.40;;;7.20;1.00;;;;;;5019613;28;20021;-74
2023/11/23 02:30:50;;;;;;;4.50;4.20;;;7.30;1.00;;;;;;5020476;28;20018;-74
2023/11/23 02:33:15;;;;;;;5.68;5.18;;;7.20;1.00;;;;;;5001971;28;20083;-74
2023/11/23 02:35:41;;;;;;;4.85;4.45;;;7.30;1.00;;;;;;5028654;28;20071;-74
2023/11/23 02:38:07;;;;;;;4.80;4.38;;;7.30;1.00;;;;;;5016662;28;20279;-74
2023/11/23 02:40:33;;;;;;;7.65;5.28;;;7.30;1.00;;;;;;5017115;28;20033;-74
2023/11/23 02:42:59;;;;;;;5.15;4.43;;;7.30;1.00;;;;;;5020209;28;20046;-74
2023/11/23 02:45:24;;;;;;;7.07;4.85;;;7.30;1.00;;;;;;5009377;28;20542;-74
2023/11/23 02:47:50;;;;;;;8.70;5.40;;;7.20;1.00;;;;;;5018288;28;20033;-74
2023/11/23 02:50:16;;;;;;;5.25;4.75;;;7.20;1.00;;;;;;5020653;28;20509;-74
2023/11/23 02:52:41;;;;;;;4.88;4.47;;;7.10;1.00;;;;;;5007241;28;20040;-74
2023/11/23 02:55:09;;;;;;;4.95;4.35;;;7.10;1.00;;;;;;5015415;28;20030;-74
2023/11/23 02:57:35;;;;;;;4.93;4.50;;;7.10;1.00;;;;;;5008843;28;20037;-74
2023/11/23 03:00:00;;;;;;;5.25;4.90;;;7.10;1.00;;;;;;5018397;28;20030;-75
2023/11/23 03:02:26;;;;;;;6.30;5.78;;;7.10;1.00;;;;;;5017666;28;20026;-74
2023/11/23 03:04:53;;;;;;;5.85;5.05;;;7.10;1.00;;;;;;5026954;28;20501;-74
2023/11/23 03:07:19;;;;;;;5.32;4.93;;;7.10;1.00;;;;;;5018106;28;20018;-74
2023/11/23 03:09:45;;;;;;;5.95;5.45;;;7.10;1.00;;;;;;5017323;28;20026;-74
2023/11/23 03:12:11;;;;;;;5.65;5.15;;;7.10;1.00;;;;;;5020957;28;20474;-74
2023/11/23 03:14:37;;;;;;;6.70;5.53;;;7.00;1.00;;;;;;4994396;28;20064;-74
2023/11/23 03:17:04;;;;;;;5.90;5.30;;;7.00;1.00;;;;;;5012925;28;20033;-74
2023/11/23 03:19:29;;;;;;;6.50;5.90;;;7.00;1.00;;;;;;4999601;28;20418;-74
2023/11/23 03:21:55;;;;;;;6.35;4.97;;;7.00;1.00;;;;;;5017608;28;20121;-74
2023/11/23 03:24:21;;;;;;;6.35;5.75;;;6.90;1.00;;;;;;5023475;28;20110;-74
2023/11/23 03:26:46;;;;;;;6.13;5.40;;;6.90;1.00;;;;;;5019778;28;20022;-74
2023/11/23 03:29:12;;;;;;;8.00;5.60;;;6.80;1.00;;;;;;5023501;28;20025;-74
2023/11/23 03:31:38;;;;;;;7.50;6.05;;;6.80;1.00;;;;;;5023612;28;20034;-74
2023/11/23 03:34:03;;;;;;;5.68;5.18;;;6.80;1.00;;;;;;5021050;28;20487;-75
2023/11/23 03:36:30;;;;;;;8.88;6.15;;;6.80;1.00;;;;;;5018994;28;20061;-74
2023/11/23 03:38:56;;;;;;;5.45;5.03;;;6.80;1.00;;;;;;5015296;28;20113;-75
2023/11/23 03:41:21;;;;;;;5.70;5.20;;;6.80;1.00;;;;;;5018825;28;20129;-74
2023/11/23 03:43:47;;;;;;;6.65;5.95;;;6.80;1.00;;;;;;5022320;28;20055;-74
2023/11/23 03:46:13;;;;;;;7.28;5.25;;;6.80;1.00;;;;;;5018919;28;20064;-75
2023/11/23 03:48:40;;;;;;;4.82;4.38;;;6.80;1.00;;;;;;5022965;28;20022;-74
2023/11/23 03:51:06;;;;;;;5.57;5.07;;;6.80;1.00;;;;;;5026395;28;20482;-74
2023/11/23 03:53:32;;;;;;;5.63;5.13;;;6.70;1.00;;;;;;4997334;28;20034;-74
2023/11/23 03:55:58;;;;;;;6.75;4.93;;;6.70;1.00;;;;;;5026235;28;20033;-75
2023/11/23 03:58:24;;;;;;;4.93;4.45;;;6.70;1.00;;;;;;5018619;28;20483;-74
2023/11/23 04:00:50;;;;;;;4.70;4.30;;;6.70;1.00;;;;;;5022364;28;20083;-74
2023/11/23 04:03:15;;;;;;;4.32;4.00;;;6.70;1.00;;;;;;5015305;28;20026;-75
2023/11/23 04:05:41;;;;;;;3.97;3.58;;;6.70;1.00;;;;;;5025434;28;20033;-74
2023/11/23 04:08:07;;;;;;;3.58;3.28;;;6.80;1.00;;;;;;5013332;28;20477;-74
2023/11/23 04:10:33;;;;;;;3.65;3.13;;;6.70;1.00;;;;;;5019657;28;20034;-75
2023/11/23 04:12:59;;;;;;;3.65;3.35;;;6.80;1.00;;;;;;5022139;28;20025;-75
2023/11/23 04:15:25;;;;;;;4.65;3.67;;;6.80;1.00;;;;;;5001598;28;20120;-74
2023/11/23 04:17:51;;;;;;;3.55;3.25;;;6.80;99.90;;;;;;5018430;28;20057;-74
2023/11/23 04:20:17;;;;;;;5.50;3.28;;;6.80;99.90;;;;;;5022284;28;20105;-74
2023/11/23 04:22:42;;;;;;;7.00;2.92;;;6.80;99.90;;;;;;5017842;28;20030;-74
2023/11/23 04:25:08;;;;;;;2.85;2.65;;;6.90;99.90;;;;;;5009590;28;20034;-75
2023/11/23 04:27:34;;;;;;;2.45;2.35;;;6.80;99.90;;;;;;5005042;28;20059;-75
2023/11/23 04:30:00;;;;;;;2.85;2.65;;;6.80;99.90;;;;;;5018861;28;20026;-74
2023/11/23 04:32:25;;;;;;;2.38;2.17;;;6.80;99.90;;;;;;5023766;28;20505;-74
2023/11/23 04:34:51;;;;;;;2.53;2.30;;;6.80;99.90;;;;;;5025665;28;20032;-74
2023/11/23 04:37:17;;;;;;;2.30;2.20;;;6.80;99.90;;;;;;5021942;28;20026;-75
2023/11/23 04:39:43;;;;;;;2.42;2.33;;;6.90;99.90;;;;;;5019102;28;20038;-74
2023/11/23 04:42:09;;;;;;;3.08;2.78;;;6.90;99.90;;;;;;5020329;28;20042;-74
2023/11/23 04:44:35;;;;;;;2.60;2.40;;;7.00;99.90;;;;;;5024698;28;20038;-74
2023/11/23 04:47:00;;;;;;;2.38;2.25;;;7.00;99.90;;;;;;5022402;28;20026;-74
2023/11/23 04:49:26;;;;;;;2.38;2.20;;;6.90;99.90;;;;;;5018130;28;20061;-74
2023/11/23 04:51:52;;;;;;;3.50;2.25;;;6.90;99.90;;;;;;5023096;28;20062;-74
2023/11/23 04:54:17;;;;;;;2.20;2.08;;;6.90;99.90;;;;;;5009025;28;20029;-74
2023/11/23 04:56:43;;;;;;;4.95;2.42;;;6.80;99.90;;;;;;5004531;28;20033;-74
2023/11/23 04:59:09;;;;;;;2.30;2.10;;;6.80;99.90;;;;;;5008824;28;20029;-74
2023/11/23 05:01:35;;;;;;;2.53;1.85;;;6.80;99.90;;;;;;5001336;28;20030;-74
2023/11/23 05:04:00;;;;;;;2.30;2.10;;;6.80;99.90;;;;;;5017712;28;20022;-74
2023/11/23 05:06:26;;;;;;;3.72;2.42;;;6.70;99.90;;;;;;5017829;28;20028;-75
2023/11/23 05:08:52;;;;;;;2.38;2.08;;;6.70;99.90;;;;;;5024404;28;20392;-74
2023/11/23 05:11:18;;;;;;;2.75;1.52;;;6.70;99.90;;;;;;5018175;28;20026;-74
2023/11/23 05:13:43;;;;;;;2.30;2.10;;;6.70;99.90;;;;;;5012053;28;20026;-74
2023/11/23 05:16:09;;;;;;;2.20;1.98;;;6.70;99.90;;;;;;5010124;28;20113;-74
2023/11/23 05:18:35;;;;;;;2.05;1.92;;;6.60;99.90;;;;;;5015801;28;20395;-75
2023/11/23 05:21:03;;;;;;;2.17;2.08;;;6.60;99.90;;;;;;5017544;28;20425;-74
2023/11/23 05:23:29;;;;;;;2.08;1.98;;;6.60;99.90;;;;;;4996439;28;20055;-74
2023/11/23 05:25:54;;;;;;;2.03;1.90;;;6.60;99.90;;;;;;5009056;28;20026;-74
2023/11/23 05:28:21;;;;;;;2.45;2.28;;;6.60;99.90;;;;;;5015391;28;20024;-74
2023/11/23 05:30:47;;;;;;;3.20;2.38;;;6.60;99.90;;;;;;5002293;28;20546;-74
2023/11/23 05:33:12;;;;;;;2.67;2.47;;;6.60;99.90;;;;;;5018020;28;20117;-75
2023/11/23 05:35:38;;;;;;;4.85;3.00;;;6.60;99.90;;;;;;5017305;28;20422;-74
2023/11/23 05:38:04;;;;;;;2.58;2.38;;;6.50;99.90;;;;;;5014880;28;20030;-74
2023/11/23 05:40:29;;;;;;;3.03;2.50;;;6.50;99.90;;;;;;5017698;28;20033;-74
2023/11/23 05:42:55;;;;;;;2.65;2.28;;;6.50;99.90;;;;;;5021349;28;20058;-74
2023/11/23 05:45:21;;;;;;;3.38;2.67;;;6.50;99.90;;;;;;5017714;28;20430;-74
2023/11/23 05:47:46;;;;;;;2.72;2.20;;;6.50;99.90;;;;;;5018712;28;20073;-74
2023/11/23 05:50:12;;;;;;;2.75;2.55;;;6.50;99.90;;;;;;5017613;28;20415;-74
2023/11/23 05:52:39;;;;;;;4.57;2.70;;;6.50;99.90;;;;;;5019227;28;20487;-74
2023/11/23 05:55:05;;;;;;;4.20;2.83;;;6.40;99.90;;;;;;4998679;28;20030;-74
2023/11/23 05:57:32;;;;;;;2.55;2.35;;;6.40;99.90;;;;;;5013842;28;20029;-74
2023/11/23 05:59:57;;;;;;;6.45;2.80;;;6.40;99.90;;;;;;5020211;28;20033;-74
2023/11/23 06:02:23;;;;;;;3.65;2.92;;;6.40;99.90;;;;;;5016808;28;20021;-74
2023/11/23 06:04:49;;;;;;;3.15;2.40;;;6.40;99.90;;;;;;5019438;28;20026;-74
2023/11/23 06:07:15;;;;;;;3.53;2.30;;;6.40;99.90;;;;;;5007946;28;20503;-75
2023/11/23 06:09:42;;;;;;;3.30;3.00;;;6.40;99.90;;;;;;5028195;28;20021;-74
2023/11/23 06:12:08;;;;;;;4.95;2.97;;;6.40;99.90;;;;;;4997263;28;20030;-74
2023/11/23 06:14:36;;;;;;;3.58;2.22;;;6.40;99.90;;;;;;5012819;28;20491;-74
2023/11/23 06:17:09;;;;;;;2.50;2.30;;;6.50;99.90;;;;;;4991801;28;20074;-74
2023/11/23 06:19:36;;;;;;;4.30;2.45;;;6.50;99.90;;;;;;5018242;28;20017;-74
2023/11/23 06:22:01;;;;;;;2.30;2.20;;;6.60;99.90;;;;;;5010582;28;20064;-74
2023/11/23 06:24:27;;;;;;;2.10;2.00;;;6.50;99.90;;;;;;5014678;28;20065;-74
2023/11/23 06:26:53;;;;;;;4.65;2.35;;;6.60;99.90;;;;;;5024873;28;20455;-74
2023/11/23 06:29:18;;;;;;;2.92;2.33;;;6.60;99.90;;;;;;5020863;28;20532;-74
2023/11/23 06:31:44;;;;;;;2.17;2.08;;;6.60;99.90;;;;;;5011112;28;20045;-74
2023/11/23 06:34:10;;;;;;;2.35;2.15;;;6.60;99.90;;;;;;5027229;28;20546;-74
2023/11/23 06:36:38;;;;;;;3.10;2.40;;;6.70;99.90;;;;;;5018065;28;20061;-74
2023/11/23 06:39:04;;;;;;;2.40;2.20;;;6.70;99.90;;;;;;5022982;28;20056;-74
2023/11/23 06:41:30;;;;;;;2.35;2.10;;;6.60;99.90;;;;;;5024956;28;20045;-75
2023/11/23 06:43:55;;;;;;;2.50;2.30;;;6.60;99.90;;;;;;5018861;28;20030;-74
2023/11/23 06:46:21;;;;;;;3.10;2.67;;;6.60;99.90;;;;;;5020001;28;20489;-74
2023/11/23 06:48:47;;;;;;;3.45;2.40;;;6.60;99.90;;;;;;5058040;28;20047;-74
2023/11/23 06:51:16;;;;;;;4.50;2.20;;;6.60;99.90;;;;;;5020621;28;20034;-74
2023/11/23 06:53:48;;;;;;;2.20;2.10;;;6.60;99.90;;;;;;5022491;28;20037;-74
2023/11/23 06:56:14;;;;;;;;;;;6.70;99.90;;;;;;5023485;28;20029;-74
2023/11/23 06:58:47;;;;;;;3.72;2.42;;;6.60;99.90;;;;;;5020421;28;20293;-74
2023/11/23 07:01:13;;;;;;;2.40;2.20;;;6.60;99.90;;;;;;5011923;28;20029;-74
2023/11/23 07:03:41;;;;;;;5.82;2.47;;;6.60;99.90;;;;;;5022644;28;20026;-74
2023/11/23 07:06:07;;;;;;;3.63;2.55;;;6.70;99.90;;;;;;5024517;28;20022;-74
2023/11/23 07:08:40;;;;;;;3.80;2.90;;;6.70;99.90;;;;;;5018844;28;20506;-74
2023/11/23 07:11:06;;;;;;;3.58;3.28;;;6.70;99.90;;;;;;5018464;28;20029;-74
2023/11/23 07:13:33;;;;;;;7.28;3.65;;;6.70;99.90;;;;;;5023979;28;20116;-74
2023/11/23 07:15:59;;;;;;;3.80;3.50;;;6.70;99.90;;;;;;4999480;28;20033;-75
2023/11/23 07:18:26;;;;;;;6.30;3.53;;;6.70;99.90;;;;;;5025110;28;20025;-74
2023/11/23 07:20:58;;;;;;;3.92;3.55;;;6.80;99.90;;;;;;5017470;28;20075;-74
2023/11/23 07:23:23;;;;;;;3.92;3.22;;;6.80;99.90;;;;;;5005191;28;20032;-74
2023/11/23 07:25:49;;;;;;;4.32;3.80;;;6.90;99.90;;;;;;5019109;28;20025;-74
2023/11/23 07:28:16;;;;;;;3.92;3.30;;;6.90;99.90;;;;;;5025130;28;20448;-74
2023/11/23 07:30:42;;;;;;;5.55;3.55;;;7.00;99.90;;;;;;5019790;28;20104;-74
2023/11/23 07:33:09;;;;;;;4.07;3.55;;;7.00;99.90;;;;;;5016149;28;20058;-74
2023/11/23 07:35:35;;;;;;;11.07;4.70;;;7.10;99.90;;;;;;5030541;28;20487;-74
2023/11/23 07:38:03;;;;;;;10.00;4.57;;;7.20;99.90;;;;;;5019030;28;20033;-74
2023/11/23 07:40:29;;;;;;;5.13;3.65;;;7.20;99.90;;;;;;5007716;28;20033;-74
2023/11/23 07:42:54;;;;;;;5.07;3.67;;;7.20;99.90;;;;;;5019965;28;20046;-74
2023/11/23 07:45:20;;;;;;;8.90;3.67;;;7.30;99.90;;;;;;5019535;28;20100;-74
2023/11/23 07:47:46;;;;;;;7.05;4.25;;;7.20;99.90;;;;;;5013271;28;20026;-74
2023/11/23 07:50:16;;;;;;;5.40;4.22;;;7.20;99.90;;;;;;5020100;28;20029;-74
2023/11/23 07:52:43;;;;;;;4.45;4.07;;;7.10;99.90;;;;;;5018569;28;20078;-74
2023/11/23 07:55:10;;;;;;;5.07;4.60;;;7.20;99.90;;;;;;5020350;28;20506;-74
2023/11/23 07:57:37;;;;;;;5.78;5.15;;;7.20;99.90;;;;;;5002767;28;20391;-74
2023/11/23 08:00:04;;;;;;;6.25;5.10;;;7.30;99.90;;;;;;5013166;28;20486;-74
2023/11/23 08:02:30;;;;;;;8.10;4.95;;;7.30;99.90;;;;;;5023105;28;20017;-74
2023/11/23 08:04:57;;;;;;;10.85;5.20;;;7.30;99.90;;;;;;5025300;28;20036;-74
2023/11/23 08:07:24;;;;;;;10.13;4.70;;;7.40;99.90;;;;;;5009553;28;20482;-74
2023/11/23 08:09:51;;;;;;;4.03;3.72;;;7.40;99.90;;;;;;5018454;28;20055;-74
2023/11/23 08:12:18;;;;;;;5.40;3.75;;;7.50;99.90;;;;;;5000506;28;20501;-74
2023/11/23 08:14:44;;;;;;;9.48;4.95;;;7.50;99.90;;;;;;5019058;28;20029;-74
2023/11/23 08:17:11;;;;;;;5.95;4.50;;;7.50;99.90;;;;;;5029291;28;20494;-74
2023/11/23 08:19:38;;;;;;;5.85;4.63;;;7.50;99.90;;;;;;5014584;28;20548;-74
2023/11/23 08:22:08;;;;;;;5.97;4.20;;;7.60;99.90;;;;;;4996981;28;20475;-75
2023/11/23 08:24:34;;;;;;;8.50;4.28;;;7.60;99.90;;;;;;5018341;28;20081;-75
2023/11/23 08:27:01;;;;;;;12.55;4.45;;;7.70;99.90;;;;;;5027503;28;20070;-75
2023/11/23 08:29:29;;;;;;;12.65;4.65;;;7.70;99.90;;;;;;5020096;28;20021;-75
2023/11/23 08:31:56;;;;;;;5.07;3.88;;;7.80;99.90;;;;;;5021964;28;20047;-74
2023/11/23 08:34:21;;;;;;;12.07;4.40;;;7.80;99.90;;;;;;5023284;28;20038;-74
2023/11/23 08:36:47;;;;;;;7.00;3.90;;;7.90;99.90;;;;;;5021005;28;20025;-74
2023/11/23 08:39:13;;;;;;;7.53;4.50;;;7.90;99.90;;;;;;5021822;28;20029;-75
2023/11/23 08:41:39;;;;;;;5.43;4.00;;;7.90;99.90;;;;;;5024895;28;20029;-75
2023/11/23 08:44:08;;;;;;;10.15;5.25;;;8.00;99.90;;;;;;5022383;28;20021;-75
2023/11/23 08:46:34;;;;;;;6.43;5.40;;;8.10;99.90;;;;;;5019432;28;20021;-75
2023/11/23 08:49:00;;;;;;;7.45;4.47;;;8.10;99.90;;;;;;5022408;28;20029;-74
2023/11/23 08:51:26;;;;;;;8.13;4.57;;;8.20;99.90;;;;;;5012008;28;20103;-74
2023/11/23 08:53:51;;;;;;;9.88;4.78;;;8.20;99.90;;;;;;5009038;28;20422;-74
2023/11/23 08:56:17;;;;;;;9.35;4.45;;;8.20;99.90;;;;;;5017707;28;20026;-74
2023/11/23 08:58:43;;;;;;;5.25;4.60;;;8.30;99.90;;;;;;5017631;28;20109;-74
2023/11/23 09:01:09;;;;;;;7.82;4.50;;;8.30;99.90;;;;;;5002240;28;20061;-74
2023/11/23 09:03:34;;;;;;;6.22;4.18;;;8.40;99.90;;;;;;5023969;28;20041;-74
2023/11/23 09:06:00;;;;;;;9.52;4.55;;;8.40;99.90;;;;;;5022100;28;20058;-74
2023/11/23 09:08:26;;;;;;;7.32;5.15;;;8.50;99.90;;;;;;5011003;28;20022;-74
2023/11/23 09:10:54;;;;;;;5.85;5.13;;;8.60;99.90;;;;;;5015469;28;20033;-75
2023/11/23 09:13:20;;;;;;;6.60;5.22;;;8.70;99.90;;;;;;5022120;28;20025;-75
2023/11/23 09:15:46;;;;;;;5.03;4.18;;;8.80;99.90;;;;;;5018299;28;20059;-75
2023/11/23 09:18:12;;;;;;;9.82;5.03;;;8.90;93.20;;;;;;5021932;28;20108;-75
2023/11/23 09:20:38;;;;;;;12.20;5.00;;;8.90;2.30;;;;;;5017995;28;20062;-75
2023/11/23 09:23:04;;;;;;;11.38;4.97;;;9.00;54.20;;;;;;5001957;28;20562;-75
2023/11/23 09:25:33;;;;;;;14.07;5.35;;;9.00;99.90;;;;;;5017280;28;20052;-75
2023/11/23 09:28:03;;;;;;;8.80;5.30;;;9.00;99.90;;;;;;5020985;28;20025;-75
2023/11/23 09:30:28;;;;;;;7.72;4.97;;;9.10;99.90;;;;;;5003430;28;20112;-75
2023/11/23 09:32:55;;;;;;;23.45;14.90;;;9.10;94.90;;;;;;5023509;28;20109;-75
2023/11/23 09:35:21;;;;;;;23.55;13.38;;;9.20;99.90;;;;;;5021718;28;20352;-75
2023/11/23 09:37:47;;;;;;;10.00;8.25;;;9.30;99.90;;;;;;5013396;28;20384;-74
2023/11/23 09:40:17;;;;;;;9.73;7.38;;;9.40;99.90;;;;;;5018147;28;20026;-74
2023/11/23 09:42:43;;;;;;;5.63;4.60;;;9.40;30.50;;;;;;5025140;28;20132;-75
2023/11/23 09:45:14;;;;;;;6.25;5.00;;;9.40;1.00;;;;;;5011304;28;20029;-75
2023/11/23 09:47:41;;;;;;;8.90;5.50;;;9.40;1.00;;;;;;5020791;28;20018;-75
2023/11/23 09:50:09;;;;;;;5.95;5.00;;;9.50;99.90;;;;;;5019021;28;20022;-75
2023/11/23 09:52:36;;;;;;;9.40;5.40;;;9.50;99.90;;;;;;5011276;28;20029;-75
2023/11/23 09:55:04;;;;;;;5.97;4.50;;;9.60;99.90;;;;;;5017397;28;20029;-75
2023/11/23 09:57:30;;;;;;;6.47;5.57;;;9.60;99.90;;;;;;5017518;28;20127;-73
2023/11/23 09:59:56;;;;;;;9.07;5.10;;;9.60;83.30;;;;;;5018687;28;20079;-73
2023/11/23 10:02:25;;;;;;;4.95;4.35;;;9.70;1.00;;;;;;5019634;28;20094;-73
2023/11/23 10:04:57;;;;;;;6.00;4.28;;;9.80;1.00;;;;;;5021249;28;20025;-73
2023/11/23 10:07:23;;;;;;;4.33;4.00;;;9.90;1.00;;;;;;5018608;28;20014;-73
2023/11/23 10:09:49;;;;;;;4.88;3.92;;;9.90;1.00;;;;;;5017912;28;20483;-73
2023/11/23 10:12:15;;;;;;;7.22;3.97;;;10.00;1.00;;;;;;4998617;28;20022;-73
2023/11/23 10:14:41;;;;;;;5.63;3.88;;;10.10;1.00;;;;;;5020665;28;20022;-74
2023/11/23 10:17:07;;;;;;;44.13;7.22;;;10.20;99.90;;;;;;5022635;28;20389;-74
2023/11/23 10:19:33;;;;;;;13.10;4.40;;;10.20;99.90;;;;;;5001411;28;20037;-73
2023/11/23 10:21:59;;;;;;;6.97;3.53;;;10.20;99.90;;;;;;5023190;28;20109;-74
2023/11/23 10:24:28;;;;;;;6.10;3.65;;;10.30;99.90;;;;;;5011140;28;20030;-74
2023/11/23 10:26:55;;;;;;;5.30;3.40;;;10.30;99.90;;;;;;5012652;28;20081;-73
2023/11/23 10:29:28;;;;;;;3.80;3.25;;;10.30;99.90;;;;;;5022179;28;20108;-73
2023/11/23 10:31:56;;;;;;;3.97;3.67;;;10.20;99.90;;;;;;5020460;28;20502;-73
2023/11/23 10:34:25;;;;;;;6.88;3.58;;;10.20;99.90;;;;;;5024283;28;20117;-73
2023/11/23 10:36:51;;;;;;;3.55;3.17;;;10.30;99.90;;;;;;5022119;28;20122;-74
2023/11/23 10:39:21;;;;;;;4.47;3.63;;;10.40;99.90;;;;;;5023129;28;20029;-73
2023/11/23 10:41:48;;;;;;;4.10;3.58;;;10.50;99.90;;;;;;5020432;28;20448;-73
2023/11/23 10:44:14;;;;;;;4.25;3.30;;;10.50;99.90;;;;;;5011641;28;20045;-73
2023/11/23 10:46:42;;;;;;;3.85;3.55;;;10.60;99.90;;;;;;5022391;28;20038;-73
2023/11/23 10:49:08;;;;;;;4.18;3.30;;;10.70;99.90;;;;;;5010765;28;20498;-73
2023/11/23 10:51:34;;;;;;;6.85;3.28;;;10.70;99.90;;;;;;5022932;28;20022;-73
2023/11/23 10:54:00;;;;;;;8.82;3.60;;;10.70;99.90;;;;;;5000517;28;20026;-73
2023/11/23 10:56:29;;;;;;;5.80;3.45;;;10.70;99.90;;;;;;5022003;28;20491;-73
2023/11/23 10:58:59;;;;;;;5.82;3.83;;;10.70;99.90;;;;;;5019883;28;20372;-73
2023/11/23 11:01:29;;;;;;;8.23;3.63;;;10.70;78.90;;;;;;5020345;28;20038;-73
2023/11/23 11:03:55;;;;;;;5.82;3.55;;;10.80;29.10;;;;;;5013449;28;20033;-73
2023/11/23 11:06:22;;;;;;;4.35;3.58;;;10.70;27.20;;;;;;5019893;28;20037;-73
2023/11/23 11:08:49;;;;;;;2.75;2.55;;;10.70;1.00;;;;;;5057580;28;20463;-73
2023/11/23 11:11:26;;;;;;;2.88;2.67;;;10.80;1.00;;;;;;5003018;28;20022;-74
2023/11/23 11:14:02;;;;;;;6.00;3.25;;;10.80;1.00;;;;;;5010406;28;20033;-73
2023/11/23 11:16:34;;;;;;;4.78;3.50;;;10.80;1.00;;;;;;5021115;28;20556;-73
2023/11/23 11:19:06;;;;;;;3.63;3.05;;;10.80;1.00;;;;;;5022557;28;20032;-73
2023/11/23 11:21:48;;;;;;;3.22;3.03;;;10.80;1.00;;;;;;5020889;28;20131;-73
2023/11/23 11:24:23;;;;;;;2.95;2.60;;;10.90;1.00;;;;;;5018743;28;20030;-73
2023/11/23 11:26:49;;;;;;;5.55;2.45;;;11.00;1.00;;;;;;5020157;28;20018;-73
2023/11/23 11:29:17;;;;;;;2.58;2.38;;;11.10;1.00;;;;;;5022467;28;20607;-73
2023/11/23 11:31:47;;;;;;;4.35;1.92;;;11.10;1.00;;;;;;5002193;28;20030;-73
2023/11/23 11:34:21;;;;;;;3.10;1.58;;;11.20;1.00;;;;;;5024490;28;20425;-73
2023/11/23 11:37:00;;;;;;;1.80;1.70;;;11.30;1.00;;;;;;5022409;28;20025;-73
2023/11/23 11:39:36;;;;;;;1.58;1.48;;;11.40;1.00;;;;;;5022054;28;20021;-73
2023/11/23 11:42:06;;;;;;;11.88;6.40;;;11.40;1.00;;;;;;5002323;28;20178;-73
2023/11/23 11:44:33;;;;;;;10.10;5.05;;;11.60;1.00;;;;;;5023152;28;20030;-73
2023/11/23 11:47:08;;;;;;;2.40;1.73;;;11.60;99.90;;;;;;5019068;28;20033;-73
2023/11/23 11:49:34;;;;;;;1.48;1.38;;;11.70;1.00;;;;;;5020874;28;20030;-73
2023/11/23 11:52:00;;;;;;;3.35;1.30;;;11.80;99.90;;;;;;5021353;28;20026;-73
2023/11/23 11:54:26;;;;;;;3.08;1.70;;;11.80;1.00;;;;;;5021228;28;20044;-73
2023/11/23 11:56:53;;;;;;;4.70;2.25;;;11.80;1.00;;;;;;5021980;28;20053;-73
2023/11/23 11:59:24;;;;;;;8.63;1.92;;;11.70;1.00;;;;;;5002349;28;20025;-73
2023/11/23 12:01:50;;;;;;;2.92;2.53;;;11.80;1.00;;;;;;5019533;28;20193;-73
2023/11/23 12:04:17;;;;;;;5.13;1.95;;;11.80;1.00;;;;;;5022384;28;20022;-73
2023/11/23 12:06:50;;;;;;;1.85;1.70;;;11.80;99.90;;;;;;5021299;28;20105;-73
2023/11/23 12:09:24;;;;;;;2.80;1.70;;;11.80;99.90;;;;;;5021170;28;20033;-73
2023/11/23 12:11:54;;;;;;;6.88;2.13;;;11.80;99.90;;;;;;5019288;28;20436;-73
2023/11/23 12:14:19;;;;;;;5.05;2.78;;;11.80;1.00;;;;;;5012715;28;20087;-73
2023/11/23 12:16:46;;;;;;;9.95;2.85;;;12.00;93.90;;;;;;5019353;28;20139;-73
2023/11/23 12:19:23;;;;;;;3.53;2.78;;;12.00;99.90;;;;;;5021726;28;20025;-73
2023/11/23 12:21:55;;;;;;;5.00;3.00;;;12.00;99.90;;;;;;4999855;28;20075;-73
2023/11/23 12:24:20;;;;;;;6.47;4.05;;;12.10;99.90;;;;;;5021808;28;20483;-73
2023/11/23 12:26:48;;;;;;;7.40;4.32;;;12.10;99.90;;;;;;4998122;28;20069;-73
2023/11/23 12:29:31;;;;;;;5.53;3.83;;;12.10;99.90;;;;;;5020072;28;20018;-73
2023/11/23 12:32:01;;;;;;;10.93;4.35;;;12.10;99.90;;;;;;5019357;28;20389;-73
2023/11/23 12:34:28;;;;;;;6.45;4.38;;;12.10;99.90;;;;;;5023275;28;20029;-73
2023/11/23 12:36:57;;;;;;;8.75;4.55;;;12.10;99.90;;;;;;5021136;28;20108;-74
2023/11/23 12:39:29;;;;;;;8.15;4.78;;;12.20;99.90;;;;;;5021855;28;20028;-73
2023/11/23 12:41:55;;;;;;;;;;;12.20;99.90;;;;;;5019525;28;20038;-73
2023/11/23 12:44:21;;;;;;;9.23;4.72;;;12.10;99.90;;;;;;5021228;28;20358;-74
2023/11/23 12:46:47;;;;;;;8.05;4.80;;;12.10;1.00;;;;;;5018458;28;20506;-74
2023/11/23 12:49:14;;;;;;;8.02;5.13;;;12.10;1.00;;;;;;5020408;28;20021;-73
2023/11/23 12:51:40;;;;;;;7.32;5.57;;;12.10;1.00;;;;;;5020085;28;20388;-73
2023/11/23 12:54:06;;;;;;;9.40;5.60;;;12.20;1.00;;;;;;5018696;28;20104;-74
2023/11/23 12:56:34;;;;;;;9.27;5.82;;;12.10;1.00;;;;;;5021029;28;20483;-73
2023/11/23 12:59:01;;;;;;;11.40;6.07;;;12.10;1.00;;;;;;5001279;28;20124;-73
2023/11/23 13:01:27;;;;;;;8.88;6.15;;;12.10;99.90;;;;;;5021888;28;20036;-74
2023/11/23 13:03:53;;;;;;;8.38;5.53;;;12.10;1.00;;;;;;5023408;28;20026;-74
2023/11/23 13:06:18;;;;;;;6.50;5.40;;;12.00;2.70;;;;;;5017922;28;20026;-73
2023/11/23 13:08:46;;;;;;;17.48;5.70;;;12.00;5.40;;;;;;5020613;28;20562;-73
2023/11/23 13:11:12;;;;;;;11.68;5.40;;;12.00;7.70;;;;;;5019067;28;20032;-73
2023/11/23 13:13:41;;;;;;;9.88;5.38;;;12.00;22.80;;;;;;5018965;28;20026;-73
2023/11/23 13:16:07;;;;;;;7.60;5.18;;;11.90;99.90;;;;;;5022260;28;20468;-73
2023/11/23 13:18:35;;;;;;;11.73;5.28;;;11.90;99.90;;;;;;5020435;28;20064;-73
2023/11/23 13:21:02;;;;;;;10.77;4.80;;;11.90;1.00;;;;;;5019280;28;20030;-73
2023/11/23 13:23:28;;;;;;;6.80;4.90;;;11.90;99.90;;;;;;5018421;28;20045;-73
2023/11/23 13:25:54;;;;;;;7.40;5.38;;;11.80;26.70;;;;;;5020630;28;20356;-73
2023/11/23 13:28:21;;;;;;;7.90;4.57;;;11.80;5.10;;;;;;5017955;28;20022;-73
2023/11/23 13:30:49;;;;;;;10.23;4.88;;;11.80;1.00;;;;;;5021513;28;20033;-74
2023/11/23 13:33:22;;;;;;;6.80;5.10;;;11.80;1.00;;;;;;5021221;28;20022;-73
2023/11/23 13:35:48;;;;;;;10.20;5.65;;;11.80;99.90;;;;;;5017913;28;20030;-73
2023/11/23 13:38:13;;;;;;;6.32;5.10;;;11.80;50.50;;;;;;5019441;28;20032;-73
2023/11/23 13:40:40;;;;;;;11.15;5.25;;;11.70;64.80;;;;;;5019220;28;20037;-73
2023/11/23 13:43:06;;;;;;;10.05;5.50;;;11.70;99.90;;;;;;5017735;28;20099;-73
2023/11/23 13:45:32;;;;;;;9.30;5.53;;;11.70;99.90;;;;;;5017149;28;20030;-73
2023/11/23 13:48:00;;;;;;;10.68;4.93;;;11.60;99.90;;;;;;5018936;28;20029;-73
2023/11/23 13:50:27;;;;;;;7.47;4.78;;;11.60;99.90;;;;;;5019105;28;20067;-73
2023/11/23 13:52:53;;;;;;;6.47;5.22;;;11.60;12.60;;;;;;5017860;28;20056;-73
2023/11/23 13:55:19;;;;;;;7.05;5.13;;;11.50;1.00;;;;;;5020313;28;20051;-74
2023/11/23 13:57:47;;;;;;;11.05;5.57;;;11.60;1.00;;;;;;5019024;28;20268;-73
2023/11/23 14:00:19;;;;;;;7.05;5.18;;;11.50;1.00;;;;;;5017384;28;20030;-73
2023/11/23 14:02:47;;;;;;;8.73;5.47;;;11.50;56.60;;;;;;5017156;28;20022;-73